Time;durP1;ratioP1;P1;durP2;ratioP2;P2;SDS_P1;SDS_P2;PMS_P1;PMS_P2;Temp;Humidity;BMP_temperature;BMP_pressure;BME280_temperature;BME280_humidity;BME280_pressure;Samples;Min_cycle;Max_cycle;Signal;HPM_P1;HPM_P2
2023/04/07 00:00:07;;;;;;;45.15;26.88;;;8.30;99.90;;;;;;5091922;28;20127;-69
2023/04/07 00:02:32;;;;;;;;;;;7.20;99.90;;;;;;5093267;28;20094;-71
2023/04/07 00:04:58;;;;;;;44.53;26.27;;;7.50;99.90;;;;;;5093039;28;20388;-71
2023/04/07 00:07:24;;;;;;;45.83;27.10;;;7.30;99.90;;;;;;5091359;28;20048;-71
2023/04/07 00:09:50;;;;;;;50.28;28.55;;;7.30;99.90;;;;;;5092615;28;20083;-70
2023/04/07 00:12:15;;;;;;;46.78;28.23;;;7.40;99.90;;;;;;5092428;28;20127;-70
2023/04/07 00:14:41;;;;;;;51.20;30.73;;;7.60;99.90;;;;;;5091502;28;20099;-70
2023/04/07 00:17:07;;;;;;;48.13;29.45;;;7.20;99.90;;;;;;5092567;28;20109;-71
2023/04/07 00:19:33;;;;;;;53.22;30.13;;;7.20;99.90;;;;;;5092534;28;20117;-70
2023/04/07 00:21:58;;;;;;;56.45;30.63;;;7.00;99.90;;;;;;5091962;28;20051;-69
2023/04/07 00:24:24;;;;;;;54.47;33.08;;;6.80;99.90;;;;;;5090741;28;20055;-72
2023/04/07 00:26:50;;;;;;;54.10;32.70;;;7.70;99.90;;;;;;5092129;28;20075;-70
2023/04/07 00:29:15;;;;;;;58.65;33.40;;;7.30;99.90;;;;;;5092305;28;20039;-71
2023/04/07 00:31:41;;;;;;;63.42;32.67;;;7.00;99.90;;;;;;5092226;28;20403;-72
2023/04/07 00:34:07;;;;;;;59.25;33.53;;;6.90;99.90;;;;;;5092622;28;20048;-70
2023/04/07 00:36:35;;;;;;;59.53;32.03;;;7.30;99.90;;;;;;5092389;28;20048;-72
2023/04/07 00:39:01;;;;;;;60.75;33.60;;;7.30;99.90;;;;;;5092026;28;20511;-70
2023/04/07 00:41:26;;;;;;;60.67;33.72;;;6.70;99.90;;;;;;5091900;28;20143;-71
2023/04/07 00:43:52;;;;;;;58.38;34.60;;;7.50;99.90;;;;;;5092153;28;20084;-70
2023/04/07 00:46:21;;;;;;;59.08;33.17;;;7.10;99.90;;;;;;5092162;28;20052;-71
2023/04/07 00:48:47;;;;;;;61.58;32.85;;;6.80;99.90;;;;;;5092042;28;20471;-70
2023/04/07 00:51:14;;;;;;;56.88;33.40;;;7.80;99.90;;;;;;5092078;28;20087;-71
2023/04/07 00:53:40;;;;;;;62.22;34.70;;;7.30;99.90;;;;;;5091738;28;20558;-70
2023/04/07 00:56:06;;;;;;;59.25;32.75;;;6.90;99.90;;;;;;5091790;28;20134;-71
2023/04/07 00:58:32;;;;;;;68.50;36.00;;;7.20;99.90;;;;;;5092029;28;20127;-71
2023/04/07 01:01:08;;;;;;;60.50;35.75;;;7.10;99.90;;;;;;5090744;28;20051;-70
2023/04/07 01:03:45;;;;;;;64.57;35.83;;;7.30;99.90;;;;;;5091974;28;20040;-71
2023/04/07 01:06:15;;;;;;;66.28;36.30;;;7.30;99.90;;;;;;5091916;28;20054;-71
2023/04/07 01:09:04;;;;;;;63.55;33.72;;;7.10;99.90;;;;;;5091854;28;20040;-71
2023/04/07 01:11:43;;;;;;;61.83;33.00;;;7.60;99.90;;;;;;5091533;28;20080;-71
2023/04/07 01:14:11;;;;;;;60.67;34.85;;;7.10;99.90;;;;;;5091957;28;20048;-70
2023/04/07 01:16:44;;;;;;;59.50;33.92;;;7.10;99.90;;;;;;5091819;28;20048;-71
2023/04/07 01:19:22;;;;;;;64.57;35.00;;;7.30;99.90;;;;;;5091954;28;20377;-72
2023/04/07 01:21:51;;;;;;;63.17;35.65;;;6.60;99.90;;;;;;5091821;28;20128;-72
2023/04/07 01:24:36;;;;;;;64.35;33.95;;;8.70;99.90;;;;;;5090136;28;20693;-70
2023/04/07 01:27:58;;;;;;;65.80;35.75;;;7.60;99.90;;;;;;5091660;28;20044;-71
2023/04/07 01:30:27;;;;;;;66.18;35.63;;;7.00;99.90;;;;;;5048951;28;20076;-71
2023/04/07 01:32:55;;;;;;;70.30;35.63;;;7.40;99.90;;;;;;5048849;28;20208;-73
2023/04/07 01:35:22;;;;;;;64.03;34.53;;;7.40;99.90;;;;;;5078780;28;20058;-71
2023/04/07 01:37:49;;;;;;;62.67;34.10;;;7.70;99.90;;;;;;5096007;28;20056;-74
2023/04/07 01:40:16;;;;;;;65.13;36.33;;;6.70;99.90;;;;;;5094410;28;20086;-72
2023/04/07 01:42:43;;;;;;;65.25;35.05;;;7.10;99.90;;;;;;5095570;28;20127;-71
2023/04/07 01:45:10;;;;;;;66.13;36.60;;;8.00;99.90;;;;;;5095488;28;20056;-73
2023/04/07 01:47:37;;;;;;;63.40;37.10;;;7.00;99.90;;;;;;5095418;28;20077;-72
2023/04/07 01:50:04;;;;;;;66.03;35.80;;;8.30;99.90;;;;;;5095317;28;20468;-71
2023/04/07 01:52:31;;;;;;;62.00;35.42;;;6.90;99.90;;;;;;5095307;28;20134;-71
2023/04/07 01:54:57;;;;;;;65.18;35.05;;;7.20;99.90;;;;;;5094751;28;20510;-72
2023/04/07 01:57:22;;;;;;;60.50;33.72;;;7.70;99.90;;;;;;5095307;28;20040;-71
2023/04/07 01:59:48;;;;;;;57.08;33.03;;;7.10;99.90;;;;;;5095333;28;20389;-71
2023/04/07 02:02:14;;;;;;;63.30;34.63;;;7.00;99.90;;;;;;5095191;28;20135;-71
2023/04/07 02:04:50;;;;;;;65.25;34.45;;;7.20;99.90;;;;;;5094015;28;20083;-72
2023/04/07 02:07:44;;;;;;;67.32;34.70;;;7.10;99.90;;;;;;5095114;28;20052;-71
2023/04/07 02:10:14;;;;;;;65.50;35.67;;;7.20;99.90;;;;;;5088720;28;20052;-73
2023/04/07 02:12:41;;;;;;;79.43;37.97;;;7.10;99.90;;;;;;5094910;28;20052;-71
2023/04/07 02:15:11;;;;;;;63.67;34.95;;;7.50;99.90;;;;;;5094913;28;20048;-72
2023/04/07 02:17:40;;;;;;;74.93;36.55;;;7.50;99.90;;;;;;5094860;28;20040;-71
2023/04/07 02:20:10;;;;;;;64.25;34.47;;;6.90;99.90;;;;;;5094957;28;20048;-73
2023/04/07 02:22:41;;;;;;;67.47;35.38;;;6.90;99.90;;;;;;5094586;28;20060;-71
2023/04/07 02:25:23;;;;;;;69.30;35.55;;;7.50;99.90;;;;;;5094810;28;20044;-72
2023/04/07 02:27:49;;;;;;;65.38;35.03;;;8.10;99.90;;;;;;5094714;28;20063;-72
2023/04/07 02:30:14;;;;;;;65.30;33.92;;;6.80;99.90;;;;;;5094274;28;20051;-73
2023/04/07 02:32:40;;;;;;;69.63;35.20;;;7.40;99.90;;;;;;5093168;28;20077;-74
2023/04/07 02:35:06;;;;;;;65.72;34.05;;;7.50;99.90;;;;;;5094544;28;20060;-73
2023/04/07 02:37:32;;;;;;;68.93;34.20;;;7.40;99.90;;;;;;5094247;28;20135;-73
2023/04/07 02:39:58;;;;;;;69.28;34.88;;;7.50;99.90;;;;;;5094502;28;20450;-74
2023/04/07 02:42:23;;;;;;;62.35;36.30;;;7.40;99.90;;;;;;5094588;28;20051;-71
2023/04/07 02:44:49;;;;;;;62.33;35.30;;;7.00;99.90;;;;;;5094205;28;20384;-71
2023/04/07 02:47:15;;;;;;;64.22;34.53;;;7.30;99.90;;;;;;5092391;28;20396;-71
2023/04/07 02:49:41;;;;;;;60.78;33.10;;;7.30;99.90;;;;;;5094140;28;20086;-72
2023/04/07 02:52:07;;;;;;;64.95;33.22;;;7.00;99.90;;;;;;5093932;28;20048;-71
2023/04/07 02:54:32;;;;;;;67.70;34.58;;;7.10;99.90;;;;;;5094171;28;20051;-72
2023/04/07 02:56:58;;;;;;;65.20;33.22;;;7.40;99.90;;;;;;5093104;28;20047;-71
2023/04/07 02:59:24;;;;;;;65.88;35.75;;;7.00;99.90;;;;;;5094126;28;20055;-73
2023/04/07 03:01:49;;;;;;;62.45;34.22;;;7.00;99.90;;;;;;5094158;28;20055;-72
2023/04/07 03:04:15;;;;;;;67.70;33.85;;;7.70;99.90;;;;;;5094018;28;20048;-72
2023/04/07 03:06:41;;;;;;;63.75;33.50;;;7.50;99.90;;;;;;5093610;28;20052;-71
2023/04/07 03:09:06;;;;;;;59.75;32.00;;;7.10;99.90;;;;;;5093786;28;20044;-71
2023/04/07 03:11:32;;;;;;;68.40;33.35;;;7.30;99.90;;;;;;5093799;28;20044;-71
2023/04/07 03:13:58;;;;;;;66.10;34.25;;;6.70;99.90;;;;;;5093840;28;20043;-71
2023/04/07 03:16:23;;;;;;;63.85;34.60;;;7.20;99.90;;;;;;5093753;28;20109;-70
2023/04/07 03:18:49;;;;;;;65.43;33.72;;;6.90;99.90;;;;;;5093755;28;20058;-72
2023/04/07 03:21:15;;;;;;;64.95;35.55;;;7.40;99.90;;;;;;5093552;28;20048;-71
2023/04/07 03:23:41;;;;;;;65.18;35.20;;;7.10;99.90;;;;;;5092346;28;20047;-72
2023/04/07 03:26:06;;;;;;;64.28;33.05;;;7.00;99.90;;;;;;5093609;28;20051;-71
2023/04/07 03:28:32;;;;;;;60.92;33.00;;;7.50;99.90;;;;;;5093192;28;20044;-70
2023/04/07 03:30:57;;;;;;;68.82;34.38;;;8.00;99.90;;;;;;5092064;28;20044;-71
2023/04/07 03:33:23;;;;;;;65.68;33.65;;;7.60;99.90;;;;;;5093877;28;20494;-72
2023/04/07 03:35:49;;;;;;;64.57;34.00;;;7.60;99.90;;;;;;5093282;28;20221;-71
2023/04/07 03:38:14;;;;;;;70.32;34.00;;;7.60;99.90;;;;;;5092144;28;20389;-74
2023/04/07 03:40:40;;;;;;;63.80;35.13;;;8.00;99.90;;;;;;5093267;28;20046;-72
2023/04/07 03:43:11;;;;;;;61.72;34.00;;;7.30;99.90;;;;;;5092328;28;20052;-72
2023/04/07 03:45:37;;;;;;;63.92;32.67;;;7.50;99.90;;;;;;5093323;28;20455;-71
2023/04/07 03:48:03;;;;;;;70.20;34.13;;;7.50;99.90;;;;;;5093132;28;20134;-70
2023/04/07 03:50:29;;;;;;;63.75;34.03;;;7.40;99.90;;;;;;5092678;28;20480;-72
2023/04/07 03:52:54;;;;;;;59.88;31.77;;;7.00;99.90;;;;;;5091752;28;20048;-72
2023/04/07 03:55:21;;;;;;;67.13;33.95;;;6.90;99.90;;;;;;5093020;28;20048;-72
2023/04/07 03:57:46;;;;;;;;;;;8.10;99.90;;;;;;5093487;28;20125;-71
2023/04/07 04:00:12;;;;;;;62.40;33.25;;;6.80;99.90;;;;;;5092924;28;20364;-71
2023/04/07 04:02:38;;;;;;;68.78;35.35;;;7.00;99.90;;;;;;5091883;28;20051;-71
2023/04/07 04:05:04;;;;;;;69.20;35.80;;;7.40;99.90;;;;;;5092694;28;20052;-70
2023/04/07 04:07:31;;;;;;;68.47;36.60;;;7.40;99.90;;;;;;5091627;28;20054;-70
2023/04/07 04:09:57;;;;;;;72.60;37.03;;;7.40;99.90;;;;;;5091443;28;20381;-72
2023/04/07 04:12:22;;;;;;;79.78;38.22;;;7.70;99.90;;;;;;5092970;28;20131;-72
2023/04/07 04:14:48;;;;;;;67.57;36.30;;;7.40;99.90;;;;;;5092876;28;20040;-72
2023/04/07 04:17:14;;;;;;;73.85;38.17;;;7.60;99.90;;;;;;5091599;28;20047;-72
2023/04/07 04:19:40;;;;;;;74.55;37.30;;;8.00;99.90;;;;;;5092226;28;20063;-72
2023/04/07 04:22:06;;;;;;;73.63;36.80;;;7.30;99.90;;;;;;5091338;28;20143;-73
2023/04/07 04:24:31;;;;;;;78.78;37.08;;;7.30;99.90;;;;;;5092600;28;20040;-71
2023/04/07 04:26:57;;;;;;;70.97;36.50;;;7.40;99.90;;;;;;5092230;28;20190;-71
2023/04/07 04:29:23;;;;;;;67.93;34.90;;;7.70;99.90;;;;;;5092382;28;20123;-72
2023/04/07 04:31:48;;;;;;;61.10;33.30;;;7.20;99.90;;;;;;5092371;28;20048;-71
2023/04/07 04:34:14;;;;;;;66.57;34.28;;;7.70;99.90;;;;;;5092311;28;20055;-71
2023/04/07 04:36:40;;;;;;;73.13;36.72;;;7.80;99.90;;;;;;5092293;28;20048;-71
2023/04/07 04:39:06;;;;;;;66.65;34.45;;;7.60;99.90;;;;;;5092294;28;20060;-71
2023/04/07 04:41:31;;;;;;;66.55;34.40;;;8.00;99.90;;;;;;5091980;28;20043;-71
2023/04/07 04:43:57;;;;;;;72.20;35.45;;;7.40;99.90;;;;;;5092277;28;20048;-70
2023/04/07 04:46:23;;;;;;;68.63;34.45;;;7.10;99.90;;;;;;5092239;28;20127;-70
2023/04/07 04:48:50;;;;;;;62.25;33.20;;;6.70;99.90;;;;;;5092045;28;20102;-71
2023/04/07 04:51:16;;;;;;;67.15;34.47;;;6.70;99.90;;;;;;5091994;28;20052;-72
2023/04/07 04:53:41;;;;;;;65.82;34.70;;;7.50;99.90;;;;;;5092114;28;20435;-71
2023/04/07 04:56:07;;;;;;;61.30;34.17;;;7.30;99.90;;;;;;5092150;28;20043;-71
2023/04/07 04:58:34;;;;;;;66.05;35.13;;;7.30;99.90;;;;;;5092063;28;20047;-70
2023/04/07 05:01:00;;;;;;;66.00;34.60;;;7.40;99.90;;;;;;5091956;28;20048;-71
2023/04/07 05:03:27;;;;;;;74.50;35.35;;;6.70;99.90;;;;;;5091780;28;20059;-72
2023/04/07 05:05:53;;;;;;;69.25;34.70;;;6.70;99.90;;;;;;5091995;28;20080;-71
2023/04/07 05:08:19;;;;;;;63.50;34.35;;;7.00;99.90;;;;;;5092082;28;20083;-71
2023/04/07 05:10:45;;;;;;;63.15;33.83;;;7.30;99.90;;;;;;5094648;28;20048;-71
2023/04/07 05:13:11;;;;;;;62.67;33.47;;;7.30;99.90;;;;;;5096146;28;20500;-72
2023/04/07 05:15:37;;;;;;;61.88;32.80;;;7.00;99.90;;;;;;5096026;28;20132;-72
2023/04/07 05:18:03;;;;;;;61.25;33.38;;;7.00;99.90;;;;;;5094533;28;20156;-72
2023/04/07 05:20:29;;;;;;;57.58;31.95;;;7.00;99.90;;;;;;5095965;28;20084;-71
2023/04/07 05:22:54;;;;;;;58.33;32.05;;;7.00;99.90;;;;;;5096042;28;20044;-71
2023/04/07 05:25:20;;;;;;;59.70;32.88;;;6.70;99.90;;;;;;5096188;28;20051;-71
2023/04/07 05:27:46;;;;;;;56.67;33.33;;;7.00;99.90;;;;;;5096281;28;20059;-72
2023/04/07 05:30:12;;;;;;;58.60;32.85;;;6.60;99.90;;;;;;5095878;28;20048;-72
2023/04/07 05:32:37;;;;;;;52.90;30.77;;;7.40;99.90;;;;;;5095154;28;20488;-72
2023/04/07 05:35:03;;;;;;;54.75;31.63;;;7.20;99.90;;;;;;5095773;28;20052;-70
2023/04/07 05:37:29;;;;;;;52.03;30.73;;;7.70;99.90;;;;;;5095732;28;20048;-71
2023/04/07 05:39:55;;;;;;;53.30;30.80;;;6.80;99.90;;;;;;5095598;28;20047;-71
2023/04/07 05:42:21;;;;;;;53.53;30.15;;;7.50;99.90;;;;;;5095545;28;20083;-72
2023/04/07 05:44:46;;;;;;;49.72;29.05;;;7.40;99.90;;;;;;5095445;28;20054;-72
2023/04/07 05:47:12;;;;;;;46.13;27.77;;;7.60;99.90;;;;;;5095628;28;20139;-73
2023/04/07 05:49:44;;;;;;;44.17;27.90;;;8.20;99.90;;;;;;5095542;28;20048;-72
2023/04/07 05:52:11;;;;;;;48.42;29.17;;;7.00;99.90;;;;;;5095505;28;20056;-71
2023/04/07 05:54:39;;;;;;;52.33;28.73;;;7.40;99.90;;;;;;5077371;28;20059;-72
2023/04/07 05:57:04;;;;;;;46.13;28.30;;;7.40;99.90;;;;;;5095282;28;20044;-71
2023/04/07 05:59:30;;;;;;;45.45;28.30;;;8.00;99.90;;;;;;5095302;28;20050;-71
2023/04/07 06:01:56;;;;;;;47.42;27.38;;;7.30;99.90;;;;;;5094970;28;20732;-71
2023/04/07 06:04:21;;;;;;;50.47;28.13;;;7.10;99.90;;;;;;5094149;28;20135;-72
2023/04/07 06:06:47;;;;;;;43.40;28.10;;;7.00;99.90;;;;;;5094976;28;20051;-73
2023/04/07 06:09:13;;;;;;;45.75;27.80;;;7.50;99.90;;;;;;5093478;28;20051;-70
2023/04/07 06:11:38;;;;;;;46.78;27.88;;;7.30;99.90;;;;;;5094969;28;20438;-70
2023/04/07 06:14:04;;;;;;;46.75;27.98;;;7.30;99.90;;;;;;5093851;28;20132;-71
2023/04/07 06:16:30;;;;;;;49.97;28.38;;;7.60;99.90;;;;;;5094677;28;20073;-71
2023/04/07 06:18:55;;;;;;;47.90;28.17;;;7.40;99.90;;;;;;5094836;28;20092;-70
2023/04/07 06:21:21;;;;;;;46.15;28.63;;;8.50;99.90;;;;;;5094836;28;20059;-71
2023/04/07 06:23:47;;;;;;;47.75;28.45;;;8.00;99.90;;;;;;5094875;28;20391;-70
2023/04/07 06:26:12;;;;;;;45.25;28.20;;;7.60;99.90;;;;;;5094870;28;20091;-71
2023/04/07 06:28:39;;;;;;;46.95;26.85;;;7.60;99.90;;;;;;5094808;28;20048;-72
2023/04/07 06:31:06;;;;;;;;;;;7.10;99.90;;;;;;5094621;28;20387;-72
2023/04/07 06:33:31;;;;;;;45.25;26.65;;;8.40;99.90;;;;;;5094771;28;19975;-70
2023/04/07 06:35:57;;;;;;;39.05;26.77;;;7.40;99.90;;;;;;5094547;28;20084;-72
2023/04/07 06:38:23;;;;;;;41.92;26.67;;;7.30;99.90;;;;;;5094596;28;20066;-71
2023/04/07 06:40:49;;;;;;;41.15;26.20;;;7.30;99.90;;;;;;5093343;28;20535;-71
2023/04/07 06:43:15;;;;;;;41.33;25.23;;;7.70;99.90;;;;;;5094202;28;20070;-71
2023/04/07 06:45:41;;;;;;;38.60;25.50;;;7.30;99.90;;;;;;5093348;28;20369;-71
2023/04/07 06:48:06;;;;;;;39.13;25.17;;;7.10;99.90;;;;;;5094408;28;20083;-70
2023/04/07 06:50:32;;;;;;;40.55;25.73;;;7.40;99.90;;;;;;5094349;28;20044;-71
2023/04/07 06:52:58;;;;;;;42.17;25.98;;;8.00;99.90;;;;;;5094292;28;20101;-70
2023/04/07 06:55:23;;;;;;;38.42;25.27;;;7.50;99.90;;;;;;5094183;28;20051;-71
2023/04/07 06:57:51;;;;;;;39.22;25.15;;;7.90;99.90;;;;;;5092451;28;20182;-70
2023/04/07 07:00:17;;;;;;;38.00;24.90;;;7.70;99.90;;;;;;5094128;28;20512;-71
2023/04/07 07:02:43;;;;;;;38.92;25.50;;;7.70;99.90;;;;;;5094068;28;20404;-71
2023/04/07 07:05:10;;;;;;;39.42;25.25;;;7.70;99.90;;;;;;5094011;28;20043;-70
2023/04/07 07:07:36;;;;;;;37.45;24.90;;;7.60;99.90;;;;;;5093974;28;20048;-70
2023/04/07 07:10:02;;;;;;;38.65;25.23;;;7.50;99.90;;;;;;5093900;28;20055;-73
2023/04/07 07:12:28;;;;;;;36.45;25.02;;;7.80;99.90;;;;;;5093758;28;20048;-71
2023/04/07 07:14:54;;;;;;;36.88;23.33;;;7.60;99.90;;;;;;5092577;28;20046;-70
2023/04/07 07:17:19;;;;;;;36.38;24.30;;;7.60;99.90;;;;;;5092779;28;20044;-70
2023/04/07 07:19:45;;;;;;;38.30;25.27;;;7.40;99.90;;;;;;5092907;28;20468;-70
2023/04/07 07:22:11;;;;;;;37.83;23.90;;;7.80;99.90;;;;;;5093973;28;20044;-70
2023/04/07 07:24:36;;;;;;;34.95;24.48;;;7.60;99.90;;;;;;5093390;28;20135;-70
2023/04/07 07:27:02;;;;;;;34.28;22.58;;;7.90;99.90;;;;;;5093458;28;20087;-70
2023/04/07 07:29:28;;;;;;;31.05;22.55;;;8.10;99.90;;;;;;5092289;28;20537;-72
2023/04/07 07:31:54;;;;;;;33.60;23.52;;;7.80;99.90;;;;;;5093012;28;20056;-71
2023/04/07 07:34:19;;;;;;;33.35;23.17;;;8.10;99.90;;;;;;5093619;28;20459;-70
2023/04/07 07:36:45;;;;;;;33.50;22.88;;;8.30;99.90;;;;;;5092539;28;20250;-70
2023/04/07 07:39:11;;;;;;;34.72;23.42;;;8.00;99.90;;;;;;5093559;28;20093;-70
2023/04/07 07:41:36;;;;;;;38.67;24.95;;;8.10;99.90;;;;;;5093070;28;20174;-70
2023/04/07 07:44:02;;;;;;;35.70;24.85;;;7.90;99.90;;;;;;5092979;28;20048;-70
2023/04/07 07:46:28;;;;;;;37.63;24.23;;;8.10;99.90;;;;;;5093047;28;20048;-70
2023/04/07 07:48:54;;;;;;;33.42;23.10;;;7.90;99.90;;;;;;5093300;28;20142;-71
2023/04/07 07:51:19;;;;;;;35.65;24.30;;;8.20;99.90;;;;;;5093204;28;20048;-70
2023/04/07 07:53:45;;;;;;;34.55;23.45;;;8.20;99.90;;;;;;5092186;28;20056;-70
2023/04/07 07:56:11;;;;;;;33.58;23.70;;;7.90;99.90;;;;;;5092908;28;20491;-70
2023/04/07 07:58:37;;;;;;;33.63;23.35;;;8.40;99.90;;;;;;5093113;28;20119;-70
2023/04/07 08:01:02;;;;;;;34.30;22.60;;;8.70;99.90;;;;;;5093041;28;20761;-70
2023/04/07 08:03:28;;;;;;;28.45;21.85;;;8.60;99.90;;;;;;5092983;28;20056;-72
2023/04/07 08:05:54;;;;;;;30.08;21.15;;;8.60;99.90;;;;;;5092886;28;20075;-69
2023/04/07 08:08:20;;;;;;;29.73;20.90;;;8.60;99.90;;;;;;5091880;28;20056;-70
2023/04/07 08:10:45;;;;;;;28.02;20.02;;;8.80;99.90;;;;;;5091267;28;20499;-70
2023/04/07 08:13:11;;;;;;;26.00;18.75;;;8.60;99.90;;;;;;5092844;28;20051;-70
2023/04/07 08:15:38;;;;;;;26.83;19.42;;;8.80;99.90;;;;;;5091736;28;20084;-70
2023/04/07 08:18:05;;;;;;;25.02;19.60;;;8.70;99.90;;;;;;5092733;28;20048;-70
2023/04/07 08:20:31;;;;;;;27.83;19.33;;;8.90;99.90;;;;;;5092686;28;20048;-70
2023/04/07 08:22:57;;;;;;;23.65;17.88;;;9.10;99.90;;;;;;5092690;28;20052;-70
2023/04/07 08:25:23;;;;;;;22.98;17.30;;;9.30;99.90;;;;;;5092377;28;20083;-70
2023/04/07 08:27:49;;;;;;;24.90;18.35;;;9.10;99.90;;;;;;5092579;28;20094;-70
2023/04/07 08:30:15;;;;;;;24.45;19.05;;;8.90;99.90;;;;;;5092090;28;20044;-69
2023/04/07 08:32:43;;;;;;;25.70;18.67;;;9.50;99.90;;;;;;5092675;28;20060;-71
2023/04/07 08:35:09;;;;;;;27.77;20.42;;;9.30;99.90;;;;;;5092365;28;20059;-71
2023/04/07 08:37:36;;;;;;;25.55;19.52;;;9.20;99.90;;;;;;5091541;28;20044;-69
2023/04/07 08:40:03;;;;;;;27.60;21.02;;;8.90;99.90;;;;;;5092200;28;20052;-72
2023/04/07 08:42:31;;;;;;;28.40;20.98;;;9.20;99.90;;;;;;5092005;28;20099;-69
2023/04/07 08:45:01;;;;;;;29.45;21.08;;;9.10;99.90;;;;;;5091359;28;20052;-69
2023/04/07 08:47:29;;;;;;;28.25;21.30;;;9.00;99.90;;;;;;5092319;28;20074;-69
2023/04/07 08:49:59;;;;;;;27.65;19.52;;;9.20;99.90;;;;;;5092071;28;20070;-69
2023/04/07 08:52:52;;;;;;;27.27;20.67;;;9.10;99.90;;;;;;5091080;28;20056;-69
2023/04/07 08:55:19;;;;;;;28.50;19.70;;;9.30;99.90;;;;;;5086089;28;20056;-68
2023/04/07 08:57:45;;;;;;;;;;;9.50;99.90;;;;;;5092665;28;20044;-68
2023/04/07 09:00:11;;;;;;;31.63;22.73;;;9.20;99.90;;;;;;5092055;28;20364;-70
2023/04/07 09:02:44;;;;;;;30.20;22.33;;;9.20;99.90;;;;;;5092028;28;20084;-68
2023/04/07 09:05:10;;;;;;;35.92;23.60;;;9.30;99.90;;;;;;5091896;28;20094;-69
2023/04/07 09:07:39;;;;;;;34.13;24.38;;;9.50;99.90;;;;;;5091016;28;20570;-69
2023/04/07 09:10:06;;;;;;;35.42;25.10;;;9.40;99.90;;;;;;5091788;28;20082;-69
2023/04/07 09:12:32;;;;;;;31.63;22.65;;;9.80;99.90;;;;;;5090886;28;20473;-68
2023/04/07 09:14:59;;;;;;;33.35;24.33;;;10.00;99.90;;;;;;5092396;28;20048;-68
2023/04/07 09:17:25;;;;;;;;;;;10.00;99.90;;;;;;5092682;28;20052;-69
2023/04/07 09:19:55;;;;;;;33.80;24.13;;;9.90;99.90;;;;;;5092016;28;19971;-69
2023/04/07 09:22:41;;;;;;;31.15;22.00;;;10.60;99.90;;;;;;5092003;28;20130;-69
2023/04/07 09:25:15;;;;;;;29.65;21.77;;;10.70;99.90;;;;;;5091803;28;20131;-69
2023/04/07 09:27:53;;;;;;;30.50;22.50;;;10.80;99.90;;;;;;5092050;28;20048;-68
2023/04/07 09:30:19;;;;;;;28.88;21.80;;;10.40;99.90;;;;;;5091893;28;20040;-73
2023/04/07 09:32:45;;;;;;;31.98;23.73;;;10.80;99.90;;;;;;5092021;28;20060;-70
2023/04/07 09:35:11;;;;;;;31.05;22.67;;;10.90;99.90;;;;;;5092339;28;20048;-69
2023/04/07 09:37:36;;;;;;;28.42;22.27;;;10.60;99.90;;;;;;5091709;28;20392;-68
2023/04/07 09:40:02;;;;;;;29.70;22.77;;;10.90;99.90;;;;;;5091110;28;20140;-68
2023/04/07 09:42:31;;;;;;;;;;;11.10;99.90;;;;;;5092345;28;20076;-68
2023/04/07 09:45:00;;;;;;;28.30;21.58;;;10.90;99.90;;;;;;5091517;28;20296;-68
2023/04/07 09:47:29;;;;;;;32.90;22.95;;;10.70;99.90;;;;;;5091762;28;20105;-70
2023/04/07 09:49:56;;;;;;;30.25;22.48;;;11.10;99.90;;;;;;5091740;28;20058;-69
2023/04/07 09:52:49;;;;;;;28.42;22.20;;;11.00;99.90;;;;;;5090432;28;20441;-70
2023/04/07 09:55:16;;;;;;;30.35;21.25;;;11.60;99.90;;;;;;5093132;28;20407;-69
2023/04/07 09:57:43;;;;;;;27.05;20.80;;;11.40;99.90;;;;;;5095539;28;20056;-69
2023/04/07 10:00:10;;;;;;;26.35;20.40;;;11.50;99.90;;;;;;5095527;28;20502;-69
2023/04/07 10:02:36;;;;;;;26.77;20.88;;;11.50;99.90;;;;;;5095469;28;20057;-68
2023/04/07 10:05:03;;;;;;;26.02;18.92;;;11.80;99.90;;;;;;5095422;28;20130;-68
2023/04/07 10:07:30;;;;;;;25.77;18.90;;;11.90;99.90;;;;;;5095026;28;20097;-68
2023/04/07 10:09:56;;;;;;;24.88;18.33;;;11.70;99.90;;;;;;5095288;28;20063;-68
2023/04/07 10:12:23;;;;;;;24.42;18.08;;;11.60;99.90;;;;;;5094283;28;20081;-68
2023/04/07 10:14:50;;;;;;;21.67;17.20;;;11.40;99.90;;;;;;5095266;28;20044;-68
2023/04/07 10:17:19;;;;;;;23.33;16.83;;;12.00;99.90;;;;;;5094348;28;20113;-68
2023/04/07 10:19:47;;;;;;;20.73;16.35;;;11.90;99.90;;;;;;5095357;28;20055;-68
2023/04/07 10:22:14;;;;;;;19.02;14.98;;;12.20;99.90;;;;;;5093761;28;20048;-69
2023/04/07 10:24:49;;;;;;;17.33;14.55;;;12.20;99.90;;;;;;5095136;28;20372;-69
2023/04/07 10:27:26;;;;;;;19.63;15.48;;;12.20;99.90;;;;;;5095099;28;20048;-70
2023/04/07 10:29:53;;;;;;;18.33;14.43;;;11.80;99.90;;;;;;5095082;28;20097;-68
2023/04/07 10:32:19;;;;;;;18.98;15.10;;;12.00;99.90;;;;;;5093518;28;20081;-70
2023/04/07 10:34:54;;;;;;;;;;;12.00;99.90;;;;;;5095524;28;20502;-70
2023/04/07 10:37:21;;;;;;;19.75;15.45;;;12.00;99.90;;;;;;5094884;28;19924;-69
2023/04/07 10:39:51;;;;;;;18.67;15.20;;;11.70;99.90;;;;;;5095147;28;20044;-68
2023/04/07 10:42:35;;;;;;;20.48;16.25;;;12.00;99.90;;;;;;5094830;28;20044;-68
2023/04/07 10:45:02;;;;;;;19.00;15.43;;;11.40;99.90;;;;;;5094876;28;20055;-68
2023/04/07 10:47:28;;;;;;;20.10;14.88;;;11.00;99.90;;;;;;5093986;28;20047;-68
2023/04/07 10:50:15;;;;;;;18.92;14.27;;;11.30;99.90;;;;;;5094504;28;20040;-68
2023/04/07 10:52:42;;;;;;;18.08;13.75;;;11.20;99.90;;;;;;5095065;28;20056;-68
2023/04/07 10:55:36;;;;;;;18.95;13.23;;;11.20;99.90;;;;;;5095009;28;20540;-68
2023/04/07 10:58:24;;;;;;;17.90;13.30;;;11.20;99.90;;;;;;5094444;28;20496;-68
2023/04/07 11:01:11;;;;;;;18.08;13.85;;;10.90;99.90;;;;;;5093545;28;20044;-68
2023/04/07 11:03:41;;;;;;;;;;;11.00;99.90;;;;;;5095118;28;20393;-68
2023/04/07 11:06:08;;;;;;;18.00;13.70;;;11.20;99.90;;;;;;5093901;28;19923;-68
2023/04/07 11:08:35;;;;;;;18.13;14.07;;;11.20;99.90;;;;;;5094227;28;20476;-67
2023/04/07 11:11:02;;;;;;;19.25;13.43;;;11.50;99.90;;;;;;5094398;28;20094;-70
2023/04/07 11:13:28;;;;;;;16.77;13.65;;;11.70;99.90;;;;;;5093249;28;20480;-68
2023/04/07 11:15:53;;;;;;;15.13;12.98;;;11.70;99.90;;;;;;5094347;28;20051;-68
2023/04/07 11:18:22;;;;;;;19.92;13.77;;;11.60;99.90;;;;;;5094345;28;20044;-67
2023/04/07 11:20:50;;;;;;;15.35;13.15;;;11.50;99.90;;;;;;5094221;28;20074;-68
2023/04/07 11:23:17;;;;;;;16.92;13.60;;;11.90;99.90;;;;;;5094140;28;20213;-69
2023/04/07 11:25:45;;;;;;;17.05;13.30;;;11.50;99.90;;;;;;5093930;28;20473;-68
2023/04/07 11:28:12;;;;;;;19.83;13.98;;;11.80;99.90;;;;;;5094121;28;20100;-70
2023/04/07 11:30:43;;;;;;;20.30;14.27;;;11.70;99.90;;;;;;5094054;28;20100;-69
2023/04/07 11:33:13;;;;;;;15.77;13.45;;;11.40;99.90;;;;;;5092528;28;20492;-68
2023/04/07 11:35:57;;;;;;;15.85;13.30;;;11.50;99.90;;;;;;5094145;28;20059;-68
2023/04/07 11:38:26;;;;;;;18.00;14.07;;;12.10;99.90;;;;;;5094279;28;20048;-68
2023/04/07 11:40:53;;;;;;;17.35;13.43;;;12.10;99.90;;;;;;5094153;28;20377;-68
2023/04/07 11:43:26;;;;;;;17.92;14.40;;;12.50;99.90;;;;;;5093138;28;20047;-68
2023/04/07 11:46:10;;;;;;;20.98;13.93;;;12.50;99.90;;;;;;5089420;28;20035;-77
2023/04/07 11:48:38;;;;;;;15.63;12.90;;;12.90;99.90;;;;;;5092296;28;20108;-70
2023/04/07 11:51:04;;;;;;;17.67;13.70;;;12.50;99.90;;;;;;5093039;28;20474;-68
2023/04/07 11:53:31;;;;;;;18.48;14.10;;;12.70;99.90;;;;;;5093199;28;20081;-68
2023/04/07 11:56:04;;;;;;;15.20;12.60;;;12.70;99.90;;;;;;5093322;28;20480;-68
2023/04/07 11:58:31;;;;;;;16.45;13.05;;;12.80;99.90;;;;;;5093070;28;20078;-68
2023/04/07 12:01:05;;;;;;;15.48;12.43;;;13.10;99.90;;;;;;5093108;28;20047;-69
2023/04/07 12:03:33;;;;;;;15.90;11.82;;;13.30;99.90;;;;;;5092106;28;20056;-69
2023/04/07 12:06:00;;;;;;;13.23;11.25;;;13.30;99.90;;;;;;5093179;28;20504;-69
2023/04/07 12:08:43;;;;;;;15.05;11.65;;;13.10;99.90;;;;;;5092991;28;20079;-68
2023/04/07 12:11:09;;;;;;;13.63;11.75;;;13.30;99.90;;;;;;5090976;28;20078;-68
2023/04/07 12:13:36;;;;;;;15.73;12.30;;;13.50;99.90;;;;;;5090507;28;20048;-68
2023/04/07 12:16:03;;;;;;;14.13;11.60;;;13.20;99.90;;;;;;5090956;28;20044;-71
2023/04/07 12:18:29;;;;;;;13.68;11.23;;;13.20;99.90;;;;;;5092440;28;20062;-68
2023/04/07 12:20:55;;;;;;;13.95;10.73;;;13.50;99.90;;;;;;5093285;28;20051;-72
2023/04/07 12:23:21;;;;;;;12.93;10.82;;;13.00;99.90;;;;;;5093076;28;20066;-68
2023/04/07 12:25:47;;;;;;;15.35;10.25;;;13.30;99.90;;;;;;5091802;28;20052;-69
2023/04/07 12:28:12;;;;;;;11.52;10.02;;;13.20;99.90;;;;;;5093115;28;20047;-68
2023/04/07 12:30:38;;;;;;;;;;;13.50;99.90;;;;;;5093436;28;20093;-68
2023/04/07 12:33:05;;;;;;;11.20;9.70;;;13.60;99.90;;;;;;5093068;28;19971;-67
2023/04/07 12:35:31;;;;;;;11.85;9.77;;;14.00;99.90;;;;;;5091594;28;20056;-68
2023/04/07 12:37:56;;;;;;;;;;;14.10;99.90;;;;;;5093504;28;20093;-69
2023/04/07 12:40:23;;;;;;;13.50;9.82;;;14.20;99.90;;;;;;5092842;28;19920;-68